This is the latest recevied weather packets stored in our database for station/object W2JGA. If no packets are shown the sender has not sent any weather packets the latest 1 day(s).
| Time | Temp. | Humidity | Pressure | Rain* | Wind** | Luminosity | Snow |
|---|---|---|---|---|---|---|---|
| 1778014350 | 23.89° C | 40% | 1013.2 hPa | 0 mm | 3.58 m/s, 246° | 716 W/m² | - |
| 1778014046 | 23.89° C | 39% | 1013.9 hPa | 0 mm | 7.6 m/s, 259° | 763 W/m² | - |
| 1778013744 | 23.33° C | 40% | 1013.6 hPa | 0 mm | 6.26 m/s, 265° | 747 W/m² | - |
| 1778013441 | 23.33° C | 42% | 1013.6 hPa | 0 mm | 6.71 m/s, 261° | 749 W/m² | - |
| 1778013138 | 23.33° C | 41% | 1013.6 hPa | 0 mm | 3.13 m/s, 225° | 727 W/m² | - |
| 1778012833 | 23.89° C | 41% | 1013.6 hPa | 0 mm | 4.47 m/s, 294° | 747 W/m² | - |
| 1778012530 | 23.89° C | 42% | 1013.6 hPa | 0 mm | 4.92 m/s, 253° | 766 W/m² | - |
| 1778012226 | 23.89° C | 42% | 1013.6 hPa | 0 mm | 5.36 m/s, 261° | 776 W/m² | - |
| 1778011927 | 23.89° C | 41% | 1013.9 hPa | 0 mm | 4.02 m/s, 238° | 789 W/m² | - |
| 1778011622 | 23.89° C | 41% | 1013.6 hPa | 0 mm | 4.02 m/s, 257° | 829 W/m² | - |
| 1778011319 | 23.33° C | 43% | 1013.6 hPa | 0 mm | 3.58 m/s, 222° | 829 W/m² | - |
| 1778011014 | 22.78° C | 44% | 1013.9 hPa | 0 mm | 4.92 m/s, 310° | 872 W/m² | - |
| 1778010712 | 23.33° C | 45% | 1013.9 hPa | 0 mm | 4.92 m/s, 255° | 246 W/m² | - |
| 1778010409 | 23.33° C | 45% | 1013.9 hPa | 0 mm | 6.26 m/s, 248° | 921 W/m² | - |
| 1778010105 | 23.33° C | 46% | 1013.9 hPa | 0 mm | 3.13 m/s, 301° | 270 W/m² | - |
| 1778009802 | 23.33° C | 48% | 1013.9 hPa | 0 mm | 3.13 m/s, 260° | 223 W/m² | - |
| 1778009499 | 22.78° C | 48% | 1013.9 hPa | 0 mm | 3.58 m/s, 297° | 851 W/m² | - |
| 1778009198 | 22.22° C | 51% | 1013.9 hPa | 0 mm | 2.24 m/s, 200° | 725 W/m² | - |
| 1778008894 | 22.78° C | 51% | 1013.9 hPa | 0 mm | 4.92 m/s, 248° | 239 W/m² | - |
| 1778008593 | 22.22° C | 52% | 1014.3 hPa | 0 mm | 0.89 m/s, 147° | 747 W/m² | - |
| 1778008291 | 22.22° C | 54% | 1014.3 hPa | 0 mm | 3.13 m/s, 217° | 928 W/m² | - |
| 1778007986 | 21.67° C | 57% | 1014.3 hPa | 0 mm | 1.34 m/s, 180° | 966 W/m² | - |
| 1778007681 | 22.22° C | 55% | 1014.3 hPa | 0 mm | 0.45 m/s, 149° | 209 W/m² | - |
| 1778007378 | 22.22° C | 54% | 1014.3 hPa | 0 mm | 1.34 m/s, 121° | 345 W/m² | - |
| 1778007074 | 21.67° C | 55% | 1014.7 hPa | 0 mm | 0.89 m/s, 142° | 862 W/m² | - |
* Rain latest hour (hover to see other rain measurements)
** Current wind speed in m/s (hover to see current wind gust speed)